Terminal Aerodrome Forecast
Issued by NWS Melbourne, FL

Home | Current Version | Previous Version | Text Only | Print | Product List | Glossary On
Versions: 1 2 3 4 5 6 7 8 9 10 11 12 13 14 15 16 17 18 19 20 21 22 23
000
FTUS42 KMLB 022300 RRA
TAFMCO
TAF
KMCO 022342Z 0300/0324 11008KT P6SM FEW035 SCT150 BKN250
     FM030200 VRB03KT P6SM FEW150 SCT250
     FM031400 11005KT P6SM SCT030 SCT250
     FM031900 11010KT P6SM VCTS SCT050CB SCT250=

USA.gov is the U.S. government's official web portal to all federal, state and local government web resources and services.